createdAt,value
2018-02-15T00:01:35.813Z,16.05
2018-02-15T00:04:01.578Z,14.37
2018-02-15T00:06:27.344Z,15.10
2018-02-15T00:08:53.097Z,14.70
2018-02-15T00:11:19.101Z,15.33
2018-02-15T00:13:45.365Z,14.45
2018-02-15T00:16:11.152Z,14.05
2018-02-15T00:18:37.333Z,14.53
2018-02-15T00:21:03.127Z,14.65
2018-02-15T00:23:29.546Z,15.17
2018-02-15T00:25:55.400Z,14.93
2018-02-15T00:28:21.657Z,14.53
2018-02-15T00:30:47.440Z,14.70
2018-02-15T00:33:13.187Z,14.67
2018-02-15T00:35:39.630Z,14.47
2018-02-15T00:38:05.391Z,14.70
2018-02-15T00:40:31.151Z,15.50
2018-02-15T00:42:57.110Z,13.90
2018-02-15T00:45:22.932Z,14.23
2018-02-15T00:47:48.720Z,14.30
2018-02-15T00:50:14.476Z,14.73
2018-02-15T00:52:40.231Z,14.60
2018-02-15T00:55:05.981Z,14.80
2018-02-15T00:57:31.751Z,14.33
2018-02-15T00:59:57.506Z,15.33
2018-02-15T01:02:23.267Z,14.87
2018-02-15T01:04:49.035Z,15.60
2018-02-15T01:07:14.795Z,14.37
2018-02-15T01:09:40.555Z,14.53
2018-02-15T01:12:06.311Z,15.40
2018-02-15T01:14:32.067Z,15.00
2018-02-15T01:16:57.827Z,14.13
2018-02-15T01:19:23.577Z,14.97
2018-02-15T01:21:49.343Z,15.23
2018-02-15T01:24:15.115Z,15.13
2018-02-15T01:26:40.886Z,15.13
2018-02-15T01:29:06.650Z,14.50
2018-02-15T01:31:32.419Z,15.27
2018-02-15T01:33:58.189Z,15.30
2018-02-15T01:36:23.956Z,14.07
2018-02-15T01:38:49.707Z,14.70
2018-02-15T01:41:15.461Z,15.57
2018-02-15T01:43:41.208Z,15.30
2018-02-15T01:46:06.988Z,15.87
2018-02-15T01:48:32.733Z,15.60
2018-02-15T01:50:58.489Z,15.07
2018-02-15T01:53:24.246Z,15.10
2018-02-15T01:55:50.008Z,15.13
2018-02-15T01:58:15.779Z,15.57
2018-02-15T02:00:41.552Z,15.23
2018-02-15T02:03:07.320Z,15.83
2018-02-15T02:05:33.091Z,15.63
2018-02-15T02:07:58.848Z,15.60
2018-02-15T02:10:24.615Z,15.77
2018-02-15T02:12:50.386Z,15.23
2018-02-15T02:15:16.147Z,16.23
2018-02-15T02:17:41.936Z,15.80
2018-02-15T02:20:07.689Z,14.87
2018-02-15T02:22:33.458Z,16.33
2018-02-15T02:24:59.222Z,15.53
2018-02-15T02:27:24.976Z,15.07
2018-02-15T02:29:50.747Z,15.67
2018-02-15T02:32:16.505Z,15.73
2018-02-15T02:34:42.270Z,15.57
2018-02-15T02:37:08.032Z,15.60
2018-02-15T02:39:33.813Z,15.40
2018-02-15T02:41:59.584Z,16.20
2018-02-15T02:44:25.347Z,15.60
2018-02-15T02:46:51.100Z,15.13
2018-02-15T02:49:16.867Z,15.40
2018-02-15T02:51:42.622Z,15.93
2018-02-15T02:54:08.372Z,15.43
2018-02-15T02:56:34.130Z,16.03
2018-02-15T02:58:59.909Z,16.40
2018-02-15T03:01:25.670Z,15.97
2018-02-15T03:03:51.419Z,15.33
2018-02-15T03:06:17.173Z,15.87
2018-02-15T03:08:42.926Z,14.97
2018-02-15T03:11:08.692Z,16.23
2018-02-15T03:13:34.447Z,16.20
2018-02-15T03:16:00.218Z,16.17
2018-02-15T03:18:25.962Z,14.17
2018-02-15T03:20:51.739Z,15.30
2018-02-15T03:23:17.493Z,14.80
2018-02-15T03:25:43.255Z,15.90
2018-02-15T03:28:09.007Z,14.23
2018-02-15T03:30:34.771Z,15.53
2018-02-15T03:33:00.511Z,14.50
2018-02-15T03:35:26.274Z,16.23
2018-02-15T03:37:52.023Z,15.53
2018-02-15T03:40:17.799Z,15.07
2018-02-15T03:42:43.551Z,16.23
2018-02-15T03:45:09.378Z,15.07
2018-02-15T03:47:35.126Z,15.27
2018-02-15T03:50:00.887Z,14.60
2018-02-15T03:52:26.642Z,14.97
2018-02-15T03:54:52.423Z,14.90
2018-02-15T03:57:18.173Z,16.20
2018-02-15T03:59:43.919Z,15.83
2018-02-15T04:02:09.683Z,15.23
2018-02-15T04:04:35.431Z,16.23
2018-02-15T04:07:01.195Z,14.97
2018-02-15T04:09:26.948Z,17.10
2018-02-15T04:11:52.710Z,16.23
2018-02-15T04:14:18.450Z,16.27
2018-02-15T04:16:44.211Z,16.03
2018-02-15T04:19:09.958Z,16.03
2018-02-15T04:21:35.722Z,15.70
2018-02-15T04:24:01.467Z,15.93
2018-02-15T04:26:27.234Z,14.97
2018-02-15T04:28:52.986Z,16.57
2018-02-15T04:31:18.744Z,17.73
2018-02-15T04:33:44.547Z,15.73
2018-02-15T04:36:10.312Z,16.97
2018-02-15T04:38:36.077Z,17.20
2018-02-15T04:41:01.872Z,16.77
2018-02-15T04:43:27.639Z,16.87
2018-02-15T04:45:53.395Z,17.77
2018-02-15T04:48:19.166Z,17.70
2018-02-15T04:50:44.915Z,17.27
2018-02-15T04:53:10.687Z,17.00
2018-02-15T04:55:36.453Z,17.23
2018-02-15T04:58:02.214Z,17.60
2018-02-15T05:00:27.975Z,18.50
2018-02-15T05:02:53.753Z,18.40
2018-02-15T05:05:19.507Z,17.57
2018-02-15T05:07:45.272Z,15.13
2018-02-15T05:10:11.030Z,16.63
2018-02-15T05:12:36.796Z,15.30
2018-02-15T05:15:02.567Z,19.47
2018-02-15T05:17:28.335Z,19.07
2018-02-15T05:19:54.078Z,17.53
2018-02-15T05:22:19.846Z,17.20
2018-02-15T05:24:45.610Z,18.93
2018-02-15T05:27:11.366Z,18.80
2018-02-15T05:29:37.130Z,18.53
2018-02-15T05:32:02.907Z,18.33
2018-02-15T05:34:28.654Z,18.10
2018-02-15T05:36:54.410Z,18.73
2018-02-15T05:39:20.175Z,18.07
2018-02-15T05:41:45.931Z,17.20
2018-02-15T05:44:11.699Z,18.73
2018-02-15T05:46:37.452Z,18.03
2018-02-15T05:49:03.223Z,17.90
2018-02-15T05:51:28.971Z,18.03
2018-02-15T05:53:54.739Z,17.27
2018-02-15T05:56:20.533Z,17.77
2018-02-15T05:58:46.279Z,18.23
2018-02-15T06:01:12.040Z,18.50
2018-02-15T06:03:37.807Z,17.80
2018-02-15T06:06:03.561Z,18.83
2018-02-15T06:08:29.327Z,19.57
2018-02-15T06:10:55.084Z,19.27
2018-02-15T06:13:20.850Z,20.20
2018-02-15T06:15:46.607Z,19.57
2018-02-15T06:18:12.364Z,20.10
2018-02-15T06:20:38.123Z,18.97
2018-02-15T06:23:03.878Z,20.13
2018-02-15T06:25:29.637Z,20.43
2018-02-15T06:27:55.388Z,20.80
2018-02-15T06:30:21.154Z,19.90
2018-02-15T06:32:46.915Z,19.10
2018-02-15T06:35:12.666Z,19.90
2018-02-15T06:37:38.417Z,21.90
2018-02-15T06:40:04.184Z,21.83
2018-02-15T06:42:29.942Z,21.07
2018-02-15T06:44:55.714Z,21.50
2018-02-15T06:47:21.467Z,21.60
2018-02-15T06:49:47.230Z,21.73
2018-02-15T06:52:12.970Z,21.47
2018-02-15T06:54:38.750Z,21.80
2018-02-15T06:57:04.494Z,22.30
2018-02-15T06:59:30.258Z,18.33
2018-02-15T07:01:56.011Z,22.13
2018-02-15T07:04:21.779Z,22.77
2018-02-15T07:06:47.522Z,22.23
2018-02-15T07:09:13.281Z,22.33
2018-02-15T07:11:39.038Z,21.97
2018-02-15T07:14:04.795Z,22.33
2018-02-15T07:16:30.564Z,23.77
2018-02-15T07:18:56.326Z,23.43
2018-02-15T07:21:22.098Z,24.90
2018-02-15T07:23:47.852Z,24.33
2018-02-15T07:26:13.622Z,25.33
2018-02-15T07:28:39.382Z,24.63
2018-02-15T07:31:05.146Z,25.30
2018-02-15T07:33:30.907Z,24.27
2018-02-15T07:35:56.679Z,25.03
2018-02-15T07:38:22.431Z,25.23
2018-02-15T07:40:48.213Z,23.77
2018-02-15T07:43:13.956Z,26.80
2018-02-15T07:45:39.722Z,22.97
2018-02-15T07:48:05.483Z,26.57
2018-02-15T07:50:31.268Z,25.73
2018-02-15T07:52:57.030Z,26.27
2018-02-15T07:55:22.819Z,26.00
2018-02-15T07:57:48.585Z,24.57
2018-02-15T08:00:14.331Z,26.03
2018-02-15T08:02:40.094Z,26.10
2018-02-15T08:05:05.849Z,24.37
2018-02-15T08:07:31.630Z,26.97
2018-02-15T08:09:57.374Z,26.30
2018-02-15T08:12:23.147Z,26.83
2018-02-15T08:14:48.901Z,27.77
2018-02-15T08:17:14.682Z,25.27
2018-02-15T08:19:40.466Z,24.40
2018-02-15T08:22:06.263Z,27.73
2018-02-15T08:24:32.034Z,26.40
2018-02-15T08:26:57.807Z,27.47
2018-02-15T08:29:23.566Z,26.23
2018-02-15T08:31:49.346Z,24.77
2018-02-15T08:34:15.135Z,28.53
2018-02-15T08:36:40.881Z,26.77
2018-02-15T08:39:06.646Z,28.40
2018-02-15T08:41:32.408Z,27.63
2018-02-15T08:43:58.174Z,26.43
2018-02-15T08:46:23.917Z,27.37
2018-02-15T08:48:49.679Z,26.37
2018-02-15T08:51:15.430Z,25.93
2018-02-15T08:53:41.187Z,25.43
2018-02-15T08:56:06.938Z,24.77
2018-02-15T08:58:32.706Z,25.60
2018-02-15T09:00:58.453Z,25.43
2018-02-15T09:03:24.223Z,27.30
2018-02-15T09:05:49.974Z,24.70
2018-02-15T09:08:15.742Z,24.83
2018-02-15T09:10:41.485Z,24.73
2018-02-15T09:13:07.254Z,26.10
2018-02-15T09:15:32.998Z,24.83
2018-02-15T09:17:58.764Z,24.07
2018-02-15T09:20:24.521Z,25.13
2018-02-15T09:22:50.281Z,22.70
2018-02-15T09:25:16.038Z,25.00
2018-02-15T09:27:41.787Z,24.13
2018-02-15T09:30:07.565Z,24.00
2018-02-15T09:32:33.318Z,24.83
2018-02-15T09:34:59.093Z,24.73
2018-02-15T09:37:24.849Z,25.90
2018-02-15T09:39:50.623Z,23.60
2018-02-15T09:42:16.382Z,22.30
2018-02-15T09:44:42.143Z,24.43
2018-02-15T09:47:07.898Z,23.87
2018-02-15T09:49:33.649Z,25.27
2018-02-15T09:51:59.403Z,26.33
2018-02-15T09:54:25.214Z,24.70
2018-02-15T09:56:50.947Z,24.87
2018-02-15T09:59:16.719Z,24.10
2018-02-15T10:01:42.458Z,23.57
2018-02-15T10:04:08.234Z,24.10
2018-02-15T10:06:33.994Z,24.70
2018-02-15T10:08:59.750Z,23.13
2018-02-15T10:11:25.507Z,24.20
2018-02-15T10:13:51.293Z,23.97
2018-02-15T10:16:17.051Z,23.67
2018-02-15T10:18:42.808Z,25.00
2018-02-15T10:21:08.582Z,24.03
2018-02-15T10:23:34.334Z,24.43
2018-02-15T10:26:00.098Z,23.20
2018-02-15T10:28:25.862Z,24.63
2018-02-15T10:30:51.623Z,25.03
2018-02-15T10:33:17.366Z,24.47
2018-02-15T10:35:43.125Z,25.67
2018-02-15T10:38:08.886Z,24.67
2018-02-15T10:40:34.657Z,23.63
2018-02-15T10:43:00.402Z,25.03
2018-02-15T10:45:26.166Z,23.77
2018-02-15T10:47:51.923Z,23.83
2018-02-15T10:50:17.688Z,23.43
2018-02-15T10:52:43.447Z,25.07
2018-02-15T10:55:09.220Z,25.27
2018-02-15T10:57:34.999Z,24.63
2018-02-15T11:00:00.755Z,23.43
2018-02-15T11:02:26.534Z,25.40
2018-02-15T11:04:58.563Z,25.07
2018-02-15T11:07:24.362Z,24.90
2018-02-15T11:09:50.083Z,24.50
2018-02-15T11:12:15.855Z,25.57
2018-02-15T11:14:41.610Z,25.80
2018-02-15T11:17:07.396Z,26.87
2018-02-15T11:19:33.151Z,27.43
2018-02-15T11:21:58.922Z,27.83
2018-02-15T11:24:24.684Z,29.33
2018-02-15T11:26:50.447Z,27.57
2018-02-15T11:29:16.217Z,27.87
2018-02-15T11:31:42.090Z,28.40
2018-02-15T11:34:07.750Z,26.40
2018-02-15T11:36:33.557Z,26.23
2018-02-15T11:38:59.342Z,27.13
2018-02-15T11:41:25.097Z,26.43
2018-02-15T11:43:50.867Z,27.90
2018-02-15T11:46:16.639Z,27.73
2018-02-15T11:48:42.404Z,27.50
2018-02-15T11:51:08.359Z,27.20
2018-02-15T11:53:34.182Z,29.55
2018-02-15T11:56:02.100Z,29.20
2018-02-15T11:58:27.866Z,29.70
2018-02-15T12:00:53.627Z,29.20
2018-02-15T12:03:19.399Z,27.20
2018-02-15T12:05:45.159Z,28.73
2018-02-15T12:08:10.928Z,26.70
2018-02-15T12:10:36.714Z,26.93
2018-02-15T12:13:02.499Z,29.07
2018-02-15T12:15:28.266Z,29.70
2018-02-15T12:17:54.029Z,26.53
2018-02-15T12:20:19.774Z,26.23
2018-02-15T12:22:45.555Z,27.20
2018-02-15T12:25:11.308Z,26.67
2018-02-15T12:27:37.079Z,27.50
2018-02-15T12:30:02.836Z,28.23
2018-02-15T12:32:28.618Z,35.87
2018-02-15T12:34:54.371Z,30.30
2018-02-15T12:37:20.126Z,27.87
2018-02-15T12:39:45.894Z,27.07
2018-02-15T12:42:11.643Z,31.23
2018-02-15T12:44:37.410Z,30.03
2018-02-15T12:47:03.171Z,28.20
2018-02-15T12:49:28.946Z,27.17
2018-02-15T12:51:54.738Z,27.93
2018-02-15T12:54:20.462Z,27.60
2018-02-15T12:56:46.233Z,33.27
2018-02-15T12:59:12.011Z,28.03
2018-02-15T13:01:37.783Z,27.20
2018-02-15T13:04:03.554Z,26.93
2018-02-15T13:06:29.306Z,26.60
2018-02-15T13:08:55.070Z,28.87
2018-02-15T13:11:20.830Z,27.17
2018-02-15T13:13:46.707Z,26.33
2018-02-15T13:16:24.962Z,27.97
2018-02-15T13:19:03.242Z,28.48
2018-02-15T13:21:29.021Z,26.52
2018-02-15T13:23:54.782Z,27.77
2018-02-15T13:26:20.539Z,29.73
2018-02-15T13:28:46.311Z,29.30
2018-02-15T13:31:12.068Z,28.60
2018-02-15T13:33:38.327Z,31.37
2018-02-15T13:36:04.114Z,28.58
2018-02-15T13:38:29.890Z,27.83
2018-02-15T13:40:55.662Z,30.67
2018-02-15T13:43:21.428Z,29.70
2018-02-15T13:45:47.203Z,26.80
2018-02-15T13:48:12.955Z,28.33
2018-02-15T13:50:38.725Z,27.03
2018-02-15T13:53:04.488Z,28.10
2018-02-15T13:55:30.262Z,27.60
2018-02-15T13:57:56.024Z,27.20
2018-02-15T14:00:21.799Z,28.13
2018-02-15T14:02:47.553Z,28.30
2018-02-15T14:05:13.321Z,28.17
2018-02-15T14:07:39.079Z,27.60
2018-02-15T14:10:04.848Z,27.13
2018-02-15T14:12:30.604Z,26.07
2018-02-15T14:14:56.383Z,27.47
2018-02-15T14:17:22.162Z,25.53
2018-02-15T14:19:47.937Z,28.37
2018-02-15T14:24:46.110Z,28.27
2018-02-15T14:27:11.866Z,28.83
2018-02-15T14:29:37.635Z,30.20
2018-02-15T14:32:03.404Z,30.17
2018-02-15T14:34:29.167Z,30.23
2018-02-15T14:36:54.950Z,29.67
2018-02-15T14:39:20.694Z,30.60
2018-02-15T14:41:46.459Z,30.97
2018-02-15T14:44:12.206Z,31.03
2018-02-15T14:46:37.979Z,30.63
2018-02-15T14:49:03.736Z,33.03
2018-02-15T14:51:29.503Z,31.70
2018-02-15T14:53:55.255Z,32.63
2018-02-15T14:56:21.019Z,31.60
2018-02-15T14:58:46.771Z,30.70
2018-02-15T15:01:12.544Z,30.37
2018-02-15T15:03:38.290Z,32.93
2018-02-15T15:06:04.060Z,32.50
2018-02-15T15:08:29.807Z,32.83
2018-02-15T15:10:55.588Z,29.47
2018-02-15T15:13:21.337Z,30.43
2018-02-15T15:15:47.069Z,31.03
2018-02-15T15:18:12.818Z,31.03
2018-02-15T15:20:38.586Z,31.63
2018-02-15T15:23:05.146Z,30.10
2018-02-15T15:25:30.896Z,30.27
2018-02-15T15:27:56.655Z,31.73
2018-02-15T15:30:22.410Z,28.10
2018-02-15T15:32:48.178Z,29.20
2018-02-15T15:35:13.927Z,27.60
2018-02-15T15:37:39.690Z,29.50
2018-02-15T15:40:05.450Z,31.47
2018-02-15T15:42:31.214Z,30.80
2018-02-15T15:44:56.975Z,28.63
2018-02-15T15:47:22.754Z,29.90
2018-02-15T15:49:48.515Z,29.23
2018-02-15T15:52:14.287Z,29.93
2018-02-15T15:54:40.058Z,31.73
2018-02-15T15:57:05.818Z,30.83
2018-02-15T15:59:31.579Z,29.43
2018-02-15T16:01:57.371Z,30.90
2018-02-15T16:04:23.110Z,29.67
2018-02-15T16:06:48.858Z,29.80
2018-02-15T16:09:14.656Z,31.10
2018-02-15T16:11:40.423Z,30.70
2018-02-15T16:14:06.191Z,30.33
2018-02-15T16:16:31.940Z,30.93
2018-02-15T16:18:57.702Z,33.53
2018-02-15T16:21:23.462Z,32.23
2018-02-15T16:23:49.232Z,31.87
2018-02-15T16:26:14.981Z,31.40
2018-02-15T16:28:40.754Z,32.10
2018-02-15T16:31:06.498Z,32.47
2018-02-15T16:33:32.252Z,34.93
2018-02-15T16:35:58.037Z,33.80
2018-02-15T16:38:23.840Z,31.57
2018-02-15T16:40:49.595Z,32.83
2018-02-15T16:43:15.366Z,33.80
2018-02-15T16:45:41.105Z,33.13
2018-02-15T16:48:06.858Z,32.53
2018-02-15T16:50:32.614Z,32.93
2018-02-15T16:52:58.383Z,33.27
2018-02-15T16:55:24.153Z,32.90
2018-02-15T16:57:49.909Z,30.20
2018-02-15T17:00:15.675Z,32.27
2018-02-15T17:02:41.449Z,33.03
2018-02-15T17:05:07.217Z,32.83
2018-02-15T17:07:32.971Z,31.90
2018-02-15T17:09:58.737Z,34.37
2018-02-15T17:12:24.487Z,34.30
2018-02-15T17:14:50.262Z,34.07
2018-02-15T17:17:16.013Z,33.53
2018-02-15T17:19:41.769Z,33.57
2018-02-15T17:22:07.525Z,34.70
2018-02-15T17:24:33.293Z,32.83
2018-02-15T17:26:59.046Z,36.57
2018-02-15T17:29:24.810Z,36.33
2018-02-15T17:31:50.569Z,37.83
2018-02-15T17:34:16.327Z,36.70
2018-02-15T17:36:42.086Z,39.53
2018-02-15T17:39:07.859Z,38.30
2018-02-15T17:41:33.604Z,39.17
2018-02-15T17:43:59.390Z,38.33
2018-02-15T17:46:25.151Z,37.40
2018-02-15T17:48:50.923Z,39.30
2018-02-15T17:51:16.698Z,39.57
2018-02-15T17:53:42.463Z,41.80
2018-02-15T17:56:08.239Z,40.37
2018-02-15T17:58:33.993Z,39.70
2018-02-15T18:00:59.780Z,41.77
2018-02-15T18:03:25.535Z,42.07
2018-02-15T18:05:51.300Z,42.50
2018-02-15T18:08:17.058Z,43.00
2018-02-15T18:10:42.824Z,42.13
2018-02-15T18:13:08.594Z,43.07
2018-02-15T18:15:34.351Z,44.97
2018-02-15T18:18:00.096Z,43.73
2018-02-15T18:20:25.862Z,42.03
2018-02-15T18:22:51.619Z,43.10
2018-02-15T18:25:17.386Z,41.60
2018-02-15T18:27:43.147Z,46.23
2018-02-15T18:30:08.926Z,41.30
2018-02-15T18:32:34.677Z,41.77
2018-02-15T18:35:00.434Z,41.53
2018-02-15T18:37:26.224Z,43.23
2018-02-15T18:39:51.987Z,39.37
2018-02-15T18:42:17.754Z,41.73
2018-02-15T18:44:43.527Z,39.93
2018-02-15T18:47:09.309Z,41.23
2018-02-15T18:49:35.063Z,40.17
2018-02-15T18:52:00.846Z,39.77
2018-02-15T18:54:26.614Z,40.57
2018-02-15T18:56:52.383Z,38.70
2018-02-15T18:59:18.139Z,42.20
2018-02-15T19:01:43.923Z,41.37
2018-02-15T19:04:09.682Z,38.90
2018-02-15T19:06:35.450Z,39.80
2018-02-15T19:09:01.207Z,41.20
2018-02-15T19:11:26.998Z,42.33
2018-02-15T19:13:52.767Z,44.30
2018-02-15T19:16:18.540Z,42.70
2018-02-15T19:18:44.296Z,44.43
2018-02-15T19:21:10.071Z,45.50
2018-02-15T19:23:35.837Z,43.83
2018-02-15T19:26:01.607Z,43.30
2018-02-15T19:28:27.388Z,44.30
2018-02-15T19:30:53.166Z,42.73
2018-02-15T19:33:18.953Z,44.47
2018-02-15T19:35:44.750Z,42.97
2018-02-15T19:38:10.529Z,46.53
2018-02-15T19:40:36.306Z,45.57
2018-02-15T19:43:02.094Z,46.57
2018-02-15T19:45:27.853Z,45.97
2018-02-15T19:47:53.624Z,42.80
2018-02-15T19:50:19.406Z,43.60
2018-02-15T19:52:45.187Z,43.97
2018-02-15T19:55:10.951Z,43.90
2018-02-15T19:57:36.742Z,50.20
2018-02-15T20:00:02.520Z,48.33
2018-02-15T20:02:28.346Z,52.60
2018-02-15T20:04:54.134Z,53.20
2018-02-15T20:07:19.926Z,46.67
2018-02-15T20:09:45.683Z,55.03
2018-02-15T20:12:11.463Z,47.27
2018-02-15T20:14:37.241Z,47.10
2018-02-15T20:17:03.006Z,50.00
2018-02-15T20:19:28.781Z,47.20
2018-02-15T20:21:54.548Z,48.67
2018-02-15T20:24:20.318Z,49.33
2018-02-15T20:26:52.243Z,47.30
2018-02-15T20:29:18.069Z,44.80
2018-02-15T20:31:43.830Z,45.70
2018-02-15T20:34:09.616Z,49.10
2018-02-15T20:36:35.370Z,49.47
2018-02-15T20:39:07.338Z,52.37
2018-02-15T20:41:33.108Z,48.67
2018-02-15T20:43:58.884Z,53.30
2018-02-15T20:46:24.646Z,50.30
2018-02-15T20:48:50.427Z,50.27
2018-02-15T20:54:31.959Z,52.15
2018-02-15T20:56:57.727Z,50.75
2018-02-15T20:59:23.518Z,55.97
2018-02-15T21:01:49.286Z,56.17
2018-02-15T21:04:15.056Z,57.63
2018-02-15T21:06:40.830Z,54.63
2018-02-15T21:09:06.602Z,51.33
2018-02-15T21:11:32.346Z,56.03
2018-02-15T21:13:58.090Z,51.60
2018-02-15T21:16:23.846Z,64.57
2018-02-15T21:18:49.603Z,59.77
2018-02-15T21:21:15.391Z,49.83
2018-02-15T21:23:41.142Z,57.20
2018-02-15T21:26:06.907Z,59.20
2018-02-15T21:28:32.676Z,56.37
2018-02-15T21:30:58.430Z,60.07
2018-02-15T21:33:24.203Z,58.00
2018-02-15T21:35:49.966Z,59.43
2018-02-15T21:38:15.731Z,58.93
2018-02-15T21:40:41.506Z,58.70
2018-02-15T21:43:07.292Z,57.53
2018-02-15T21:45:33.072Z,54.03
2018-02-15T21:47:58.830Z,66.57
2018-02-15T21:50:24.623Z,61.90
2018-02-15T21:52:50.383Z,58.10
2018-02-15T21:55:16.167Z,67.70
2018-02-15T21:57:41.934Z,58.33
2018-02-15T22:00:07.735Z,58.17
2018-02-15T22:02:33.518Z,58.93
2018-02-15T22:04:59.285Z,61.07
2018-02-15T22:07:25.055Z,65.17
2018-02-15T22:09:50.844Z,71.93
2018-02-15T22:12:16.627Z,65.97
2018-02-15T22:14:42.390Z,52.80
2018-02-15T22:17:08.171Z,60.47
2018-02-15T22:19:33.931Z,55.43
2018-02-15T22:21:59.722Z,63.83
2018-02-15T22:24:25.478Z,61.50
2018-02-15T22:26:51.246Z,59.13
2018-02-15T22:29:17.023Z,52.23
2018-02-15T22:31:42.795Z,54.03
2018-02-15T22:34:08.555Z,53.20
2018-02-15T22:36:34.348Z,57.70
2018-02-15T22:39:00.100Z,56.20
2018-02-15T22:41:25.876Z,50.67
2018-02-15T22:43:51.647Z,56.83
2018-02-15T22:46:17.427Z,52.93
2018-02-15T22:48:43.201Z,51.07
2018-02-15T22:51:08.979Z,46.13
2018-02-15T22:53:34.747Z,52.33
2018-02-15T22:56:00.540Z,48.47
2018-02-15T22:58:26.314Z,47.60
2018-02-15T23:00:52.109Z,46.70
2018-02-15T23:03:17.872Z,48.10
2018-02-15T23:05:43.639Z,46.60
2018-02-15T23:08:09.413Z,43.33
2018-02-15T23:10:35.174Z,41.40
2018-02-15T23:13:00.958Z,42.30
2018-02-15T23:15:26.719Z,39.27
2018-02-15T23:17:52.486Z,38.80
2018-02-15T23:20:18.247Z,43.37
2018-02-15T23:22:44.027Z,41.73
2018-02-15T23:25:09.790Z,43.67
2018-02-15T23:27:35.563Z,38.43
2018-02-15T23:30:01.312Z,43.50
2018-02-15T23:32:27.079Z,41.10
2018-02-15T23:34:52.839Z,41.87
2018-02-15T23:37:18.606Z,38.43
2018-02-15T23:39:44.364Z,31.30
2018-02-15T23:42:10.128Z,32.13
2018-02-15T23:44:35.873Z,31.13
2018-02-15T23:47:01.644Z,30.30
2018-02-15T23:49:27.404Z,28.70
2018-02-15T23:51:53.166Z,32.47
2018-02-15T23:54:18.923Z,27.43
2018-02-15T23:56:44.693Z,27.20
2018-02-15T23:59:10.448Z,24.97
